sensor_id;sensor_type;location;lat;lon;timestamp;P1;durP1;ratioP1;P2;durP2;ratioP2
51489;SDS011;57752;53.574;9.736;2023-04-24T00:04:39;26.25;;;14.20;;
51489;SDS011;57752;53.574;9.736;2023-04-24T00:09:40;20.60;;;10.95;;
51489;SDS011;57752;53.574;9.736;2023-04-24T00:14:40;22.95;;;11.88;;
51489;SDS011;57752;53.574;9.736;2023-04-24T00:19:40;22.90;;;13.05;;
51489;SDS011;57752;53.574;9.736;2023-04-24T00:24:40;24.30;;;13.55;;
51489;SDS011;57752;53.574;9.736;2023-04-24T00:29:40;19.02;;;10.95;;
51489;SDS011;57752;53.574;9.736;2023-04-24T00:34:41;20.63;;;11.25;;
51489;SDS011;57752;53.574;9.736;2023-04-24T00:39:41;19.63;;;11.27;;
51489;SDS011;57752;53.574;9.736;2023-04-24T00:44:42;17.30;;;9.63;;
51489;SDS011;57752;53.574;9.736;2023-04-24T00:49:42;18.55;;;10.73;;
51489;SDS011;57752;53.574;9.736;2023-04-24T00:54:42;21.15;;;10.95;;
51489;SDS011;57752;53.574;9.736;2023-04-24T00:59:43;20.00;;;11.32;;
51489;SDS011;57752;53.574;9.736;2023-04-24T01:04:43;21.73;;;13.13;;
51489;SDS011;57752;53.574;9.736;2023-04-24T01:09:43;22.63;;;12.63;;
51489;SDS011;57752;53.574;9.736;2023-04-24T01:14:47;20.45;;;11.43;;
51489;SDS011;57752;53.574;9.736;2023-04-24T01:19:47;20.75;;;11.48;;
51489;SDS011;57752;53.574;9.736;2023-04-24T01:24:47;22.08;;;11.65;;
51489;SDS011;57752;53.574;9.736;2023-04-24T01:29:48;17.80;;;9.60;;
51489;SDS011;57752;53.574;9.736;2023-04-24T01:34:49;16.15;;;8.68;;
51489;SDS011;57752;53.574;9.736;2023-04-24T01:39:50;16.30;;;9.65;;
51489;SDS011;57752;53.574;9.736;2023-04-24T01:44:50;17.38;;;8.73;;
51489;SDS011;57752;53.574;9.736;2023-04-24T01:49:51;17.30;;;7.68;;
51489;SDS011;57752;53.574;9.736;2023-04-24T01:54:51;14.50;;;7.55;;
51489;SDS011;57752;53.574;9.736;2023-04-24T01:59:52;15.55;;;8.05;;
51489;SDS011;57752;53.574;9.736;2023-04-24T02:04:52;14.70;;;7.43;;
51489;SDS011;57752;53.574;9.736;2023-04-24T02:09:53;12.25;;;6.22;;
51489;SDS011;57752;53.574;9.736;2023-04-24T02:14:53;13.23;;;6.30;;
51489;SDS011;57752;53.574;9.736;2023-04-24T02:19:53;13.40;;;6.28;;
51489;SDS011;57752;53.574;9.736;2023-04-24T02:24:53;14.48;;;6.10;;
51489;SDS011;57752;53.574;9.736;2023-04-24T02:29:53;12.45;;;5.90;;
51489;SDS011;57752;53.574;9.736;2023-04-24T02:34:53;12.18;;;5.68;;
51489;SDS011;57752;53.574;9.736;2023-04-24T02:39:54;12.40;;;5.88;;
51489;SDS011;57752;53.574;9.736;2023-04-24T02:44:54;12.68;;;5.60;;
51489;SDS011;57752;53.574;9.736;2023-04-24T02:49:54;13.23;;;5.22;;
51489;SDS011;57752;53.574;9.736;2023-04-24T02:54:54;12.25;;;5.10;;
51489;SDS011;57752;53.574;9.736;2023-04-24T02:59:54;11.75;;;5.38;;
51489;SDS011;57752;53.574;9.736;2023-04-24T03:04:54;12.65;;;5.55;;
51489;SDS011;57752;53.574;9.736;2023-04-24T03:09:55;12.88;;;5.80;;
51489;SDS011;57752;53.574;9.736;2023-04-24T03:14:55;13.75;;;6.70;;
51489;SDS011;57752;53.574;9.736;2023-04-24T03:19:56;13.10;;;5.57;;
51489;SDS011;57752;53.574;9.736;2023-04-24T03:24:56;12.95;;;6.15;;
51489;SDS011;57752;53.574;9.736;2023-04-24T03:29:56;14.65;;;6.40;;
51489;SDS011;57752;53.574;9.736;2023-04-24T03:34:56;13.25;;;6.43;;
51489;SDS011;57752;53.574;9.736;2023-04-24T03:39:56;12.15;;;5.28;;
51489;SDS011;57752;53.574;9.736;2023-04-24T03:44:57;13.73;;;5.65;;
51489;SDS011;57752;53.574;9.736;2023-04-24T03:49:57;12.40;;;5.38;;
51489;SDS011;57752;53.574;9.736;2023-04-24T03:54:57;13.43;;;5.10;;
51489;SDS011;57752;53.574;9.736;2023-04-24T03:59:57;12.32;;;5.38;;
51489;SDS011;57752;53.574;9.736;2023-04-24T04:04:57;12.85;;;5.55;;
51489;SDS011;57752;53.574;9.736;2023-04-24T04:09:57;12.77;;;5.50;;
51489;SDS011;57752;53.574;9.736;2023-04-24T04:14:58;11.68;;;5.22;;
51489;SDS011;57752;53.574;9.736;2023-04-24T04:19:58;13.13;;;5.25;;
51489;SDS011;57752;53.574;9.736;2023-04-24T04:24:58;12.90;;;5.22;;
51489;SDS011;57752;53.574;9.736;2023-04-24T04:29:59;11.73;;;5.47;;
51489;SDS011;57752;53.574;9.736;2023-04-24T04:35:04;12.35;;;5.43;;
51489;SDS011;57752;53.574;9.736;2023-04-24T04:40:04;11.73;;;4.65;;
51489;SDS011;57752;53.574;9.736;2023-04-24T04:45:11;11.05;;;4.10;;
51489;SDS011;57752;53.574;9.736;2023-04-24T04:50:11;10.50;;;4.55;;
51489;SDS011;57752;53.574;9.736;2023-04-24T04:55:11;12.52;;;4.90;;
51489;SDS011;57752;53.574;9.736;2023-04-24T05:00:13;11.05;;;3.72;;
51489;SDS011;57752;53.574;9.736;2023-04-24T05:05:13;10.18;;;4.40;;
51489;SDS011;57752;53.574;9.736;2023-04-24T05:10:14;12.53;;;4.43;;
51489;SDS011;57752;53.574;9.736;2023-04-24T05:15:14;12.30;;;4.38;;
51489;SDS011;57752;53.574;9.736;2023-04-24T05:20:14;9.95;;;3.92;;
51489;SDS011;57752;53.574;9.736;2023-04-24T05:25:14;13.80;;;4.10;;
51489;SDS011;57752;53.574;9.736;2023-04-24T05:30:15;11.00;;;4.20;;
51489;SDS011;57752;53.574;9.736;2023-04-24T05:35:15;10.35;;;3.63;;
51489;SDS011;57752;53.574;9.736;2023-04-24T05:40:15;15.57;;;3.40;;
51489;SDS011;57752;53.574;9.736;2023-04-24T05:45:15;19.30;;;4.00;;
51489;SDS011;57752;53.574;9.736;2023-04-24T05:50:16;39.45;;;6.85;;
51489;SDS011;57752;53.574;9.736;2023-04-24T05:55:16;33.78;;;4.55;;
51489;SDS011;57752;53.574;9.736;2023-04-24T06:00:17;63.15;;;6.63;;
51489;SDS011;57752;53.574;9.736;2023-04-24T06:05:19;45.75;;;5.90;;
51489;SDS011;57752;53.574;9.736;2023-04-24T06:10:19;42.83;;;7.00;;
51489;SDS011;57752;53.574;9.736;2023-04-24T06:15:19;50.50;;;8.02;;
51489;SDS011;57752;53.574;9.736;2023-04-24T06:20:20;37.83;;;5.88;;
51489;SDS011;57752;53.574;9.736;2023-04-24T06:25:20;25.00;;;4.43;;
51489;SDS011;57752;53.574;9.736;2023-04-24T06:30:20;38.70;;;5.95;;
51489;SDS011;57752;53.574;9.736;2023-04-24T06:35:20;70.05;;;9.93;;
51489;SDS011;57752;53.574;9.736;2023-04-24T06:40:20;30.08;;;5.32;;
51489;SDS011;57752;53.574;9.736;2023-04-24T06:45:20;20.88;;;4.65;;
51489;SDS011;57752;53.574;9.736;2023-04-24T06:50:21;10.40;;;3.53;;
51489;SDS011;57752;53.574;9.736;2023-04-24T06:55:21;11.03;;;3.60;;
51489;SDS011;57752;53.574;9.736;2023-04-24T07:00:21;14.10;;;4.07;;
51489;SDS011;57752;53.574;9.736;2023-04-24T07:05:23;10.68;;;4.35;;
51489;SDS011;57752;53.574;9.736;2023-04-24T07:10:24;13.52;;;5.10;;
51489;SDS011;57752;53.574;9.736;2023-04-24T07:15:27;15.88;;;5.93;;
51489;SDS011;57752;53.574;9.736;2023-04-24T07:20:27;13.63;;;5.78;;
51489;SDS011;57752;53.574;9.736;2023-04-24T07:25:27;12.25;;;5.75;;
51489;SDS011;57752;53.574;9.736;2023-04-24T07:30:27;12.20;;;6.43;;
51489;SDS011;57752;53.574;9.736;2023-04-24T07:35:29;14.02;;;6.22;;
51489;SDS011;57752;53.574;9.736;2023-04-24T07:40:29;15.30;;;6.77;;
51489;SDS011;57752;53.574;9.736;2023-04-24T07:45:29;42.85;;;10.77;;
51489;SDS011;57752;53.574;9.736;2023-04-24T07:50:31;18.48;;;7.32;;
51489;SDS011;57752;53.574;9.736;2023-04-24T07:55:31;41.05;;;9.38;;
51489;SDS011;57752;53.574;9.736;2023-04-24T08:00:31;21.20;;;6.88;;
51489;SDS011;57752;53.574;9.736;2023-04-24T08:05:31;20.33;;;6.85;;
51489;SDS011;57752;53.574;9.736;2023-04-24T08:10:31;15.10;;;6.00;;
51489;SDS011;57752;53.574;9.736;2023-04-24T08:15:31;15.13;;;5.93;;
51489;SDS011;57752;53.574;9.736;2023-04-24T08:20:32;13.35;;;5.22;;
51489;SDS011;57752;53.574;9.736;2023-04-24T08:25:32;11.48;;;5.70;;
51489;SDS011;57752;53.574;9.736;2023-04-24T08:30:32;15.77;;;6.60;;
51489;SDS011;57752;53.574;9.736;2023-04-24T08:35:32;15.93;;;7.78;;
51489;SDS011;57752;53.574;9.736;2023-04-24T08:40:33;13.65;;;7.30;;
51489;SDS011;57752;53.574;9.736;2023-04-24T08:45:34;16.52;;;7.55;;
51489;SDS011;57752;53.574;9.736;2023-04-24T08:50:35;14.52;;;7.45;;
51489;SDS011;57752;53.574;9.736;2023-04-24T08:55:35;15.05;;;7.50;;
51489;SDS011;57752;53.574;9.736;2023-04-24T09:00:36;16.30;;;8.05;;
51489;SDS011;57752;53.574;9.736;2023-04-24T09:05:38;14.90;;;7.55;;
51489;SDS011;57752;53.574;9.736;2023-04-24T09:10:40;18.73;;;9.40;;
51489;SDS011;57752;53.574;9.736;2023-04-24T09:15:41;21.55;;;10.07;;
51489;SDS011;57752;53.574;9.736;2023-04-24T09:21:14;27.07;;;9.47;;
51489;SDS011;57752;53.574;9.736;2023-04-24T09:26:08;24.73;;;9.63;;
51489;SDS011;57752;53.574;9.736;2023-04-24T09:36:09;29.23;;;10.00;;
51489;SDS011;57752;53.574;9.736;2023-04-24T09:41:10;38.17;;;11.32;;
51489;SDS011;57752;53.574;9.736;2023-04-24T09:46:13;17.30;;;9.95;;
51489;SDS011;57752;53.574;9.736;2023-04-24T09:51:13;16.53;;;8.27;;
51489;SDS011;57752;53.574;9.736;2023-04-24T09:56:15;19.93;;;10.97;;
51489;SDS011;57752;53.574;9.736;2023-04-24T10:01:15;19.10;;;10.27;;
51489;SDS011;57752;53.574;9.736;2023-04-24T10:06:15;20.38;;;9.50;;
51489;SDS011;57752;53.574;9.736;2023-04-24T10:11:15;22.15;;;11.52;;
51489;SDS011;57752;53.574;9.736;2023-04-24T10:16:15;24.40;;;11.07;;
51489;SDS011;57752;53.574;9.736;2023-04-24T10:21:19;19.83;;;9.93;;
51489;SDS011;57752;53.574;9.736;2023-04-24T10:26:19;18.15;;;10.05;;
51489;SDS011;57752;53.574;9.736;2023-04-24T10:31:20;21.35;;;11.57;;
51489;SDS011;57752;53.574;9.736;2023-04-24T10:36:20;20.23;;;11.88;;
51489;SDS011;57752;53.574;9.736;2023-04-24T10:41:22;21.87;;;12.43;;
51489;SDS011;57752;53.574;9.736;2023-04-24T10:46:25;20.77;;;11.60;;
51489;SDS011;57752;53.574;9.736;2023-04-24T10:56:47;24.52;;;13.98;;
51489;SDS011;57752;53.574;9.736;2023-04-24T11:01:52;27.35;;;13.00;;
51489;SDS011;57752;53.574;9.736;2023-04-24T11:06:52;26.02;;;14.60;;
51489;SDS011;57752;53.574;9.736;2023-04-24T11:11:53;25.45;;;13.82;;
51489;SDS011;57752;53.574;9.736;2023-04-24T11:17:02;24.98;;;13.70;;
51489;SDS011;57752;53.574;9.736;2023-04-24T11:22:13;24.92;;;13.73;;
51489;SDS011;57752;53.574;9.736;2023-04-24T11:32:30;20.35;;;11.25;;
51489;SDS011;57752;53.574;9.736;2023-04-24T11:37:38;22.23;;;13.18;;
51489;SDS011;57752;53.574;9.736;2023-04-24T11:42:40;23.75;;;11.93;;
51489;SDS011;57752;53.574;9.736;2023-04-24T11:47:40;31.80;;;11.98;;
51489;SDS011;57752;53.574;9.736;2023-04-24T11:52:41;28.13;;;11.13;;
51489;SDS011;57752;53.574;9.736;2023-04-24T11:57:42;18.63;;;10.00;;
51489;SDS011;57752;53.574;9.736;2023-04-24T12:02:44;30.92;;;11.65;;
51489;SDS011;57752;53.574;9.736;2023-04-24T12:07:44;35.92;;;10.75;;
51489;SDS011;57752;53.574;9.736;2023-04-24T12:12:44;25.85;;;11.20;;
51489;SDS011;57752;53.574;9.736;2023-04-24T12:17:46;17.17;;;9.32;;
51489;SDS011;57752;53.574;9.736;2023-04-24T12:22:48;18.15;;;8.98;;
51489;SDS011;57752;53.574;9.736;2023-04-24T12:27:52;17.90;;;9.50;;
51489;SDS011;57752;53.574;9.736;2023-04-24T12:32:53;17.52;;;9.38;;
51489;SDS011;57752;53.574;9.736;2023-04-24T12:37:54;18.42;;;9.45;;
51489;SDS011;57752;53.574;9.736;2023-04-24T12:42:55;25.08;;;10.98;;
51489;SDS011;57752;53.574;9.736;2023-04-24T12:47:55;23.58;;;13.05;;
51489;SDS011;57752;53.574;9.736;2023-04-24T12:52:55;29.80;;;12.60;;
51489;SDS011;57752;53.574;9.736;2023-04-24T12:57:55;19.90;;;11.25;;
51489;SDS011;57752;53.574;9.736;2023-04-24T13:02:56;18.48;;;10.70;;
51489;SDS011;57752;53.574;9.736;2023-04-24T13:07:56;22.25;;;11.80;;
51489;SDS011;57752;53.574;9.736;2023-04-24T13:12:57;21.45;;;12.00;;
51489;SDS011;57752;53.574;9.736;2023-04-24T13:17:57;19.70;;;10.70;;
51489;SDS011;57752;53.574;9.736;2023-04-24T13:22:57;19.73;;;10.73;;
51489;SDS011;57752;53.574;9.736;2023-04-24T13:27:57;21.70;;;10.73;;
51489;SDS011;57752;53.574;9.736;2023-04-24T13:32:57;21.48;;;12.68;;
51489;SDS011;57752;53.574;9.736;2023-04-24T13:37:58;18.42;;;10.65;;
51489;SDS011;57752;53.574;9.736;2023-04-24T13:42:58;22.42;;;11.88;;
51489;SDS011;57752;53.574;9.736;2023-04-24T13:47:58;18.25;;;9.70;;
51489;SDS011;57752;53.574;9.736;2023-04-24T13:52:58;24.63;;;12.27;;
51489;SDS011;57752;53.574;9.736;2023-04-24T13:58:00;20.05;;;11.77;;
51489;SDS011;57752;53.574;9.736;2023-04-24T14:03:01;18.35;;;9.82;;
51489;SDS011;57752;53.574;9.736;2023-04-24T14:08:01;19.10;;;10.30;;
51489;SDS011;57752;53.574;9.736;2023-04-24T14:13:01;20.90;;;11.90;;
51489;SDS011;57752;53.574;9.736;2023-04-24T14:18:01;20.10;;;11.23;;
51489;SDS011;57752;53.574;9.736;2023-04-24T14:23:03;20.50;;;11.13;;
51489;SDS011;57752;53.574;9.736;2023-04-24T14:28:04;24.38;;;13.80;;
51489;SDS011;57752;53.574;9.736;2023-04-24T14:33:05;22.98;;;12.20;;
51489;SDS011;57752;53.574;9.736;2023-04-24T14:38:05;20.73;;;11.30;;
51489;SDS011;57752;53.574;9.736;2023-04-24T14:43:06;21.30;;;11.20;;
51489;SDS011;57752;53.574;9.736;2023-04-24T14:48:07;21.75;;;10.60;;
51489;SDS011;57752;53.574;9.736;2023-04-24T14:53:08;17.77;;;8.73;;
51489;SDS011;57752;53.574;9.736;2023-04-24T14:58:08;13.07;;;5.97;;
51489;SDS011;57752;53.574;9.736;2023-04-24T15:03:08;13.20;;;5.35;;
51489;SDS011;57752;53.574;9.736;2023-04-24T15:08:08;15.23;;;5.82;;
51489;SDS011;57752;53.574;9.736;2023-04-24T15:13:08;16.23;;;6.53;;
51489;SDS011;57752;53.574;9.736;2023-04-24T15:18:09;12.70;;;5.60;;
51489;SDS011;57752;53.574;9.736;2023-04-24T15:23:11;12.77;;;5.28;;
51489;SDS011;57752;53.574;9.736;2023-04-24T15:28:11;15.27;;;6.80;;
51489;SDS011;57752;53.574;9.736;2023-04-24T15:33:11;22.45;;;11.93;;
51489;SDS011;57752;53.574;9.736;2023-04-24T15:38:11;23.38;;;11.23;;
51489;SDS011;57752;53.574;9.736;2023-04-24T15:43:12;22.60;;;11.02;;
51489;SDS011;57752;53.574;9.736;2023-04-24T15:48:12;22.95;;;11.32;;
51489;SDS011;57752;53.574;9.736;2023-04-24T15:53:12;24.40;;;12.07;;
51489;SDS011;57752;53.574;9.736;2023-04-24T15:58:12;18.45;;;8.15;;
51489;SDS011;57752;53.574;9.736;2023-04-24T16:03:12;19.03;;;7.73;;
51489;SDS011;57752;53.574;9.736;2023-04-24T16:08:13;22.93;;;9.60;;
51489;SDS011;57752;53.574;9.736;2023-04-24T16:13:14;19.40;;;8.82;;
51489;SDS011;57752;53.574;9.736;2023-04-24T16:18:14;18.92;;;7.82;;
51489;SDS011;57752;53.574;9.736;2023-04-24T16:23:16;16.35;;;6.13;;
51489;SDS011;57752;53.574;9.736;2023-04-24T16:28:16;15.02;;;6.10;;
51489;SDS011;57752;53.574;9.736;2023-04-24T16:33:16;16.83;;;7.13;;
51489;SDS011;57752;53.574;9.736;2023-04-24T16:38:17;17.30;;;7.68;;
51489;SDS011;57752;53.574;9.736;2023-04-24T16:43:17;15.25;;;6.82;;
51489;SDS011;57752;53.574;9.736;2023-04-24T16:48:18;20.40;;;7.20;;
51489;SDS011;57752;53.574;9.736;2023-04-24T16:53:18;17.25;;;7.78;;
51489;SDS011;57752;53.574;9.736;2023-04-24T16:58:18;18.70;;;8.00;;
51489;SDS011;57752;53.574;9.736;2023-04-24T17:03:18;17.73;;;7.65;;
51489;SDS011;57752;53.574;9.736;2023-04-24T17:08:18;17.05;;;8.00;;
51489;SDS011;57752;53.574;9.736;2023-04-24T17:13:18;17.38;;;7.85;;
51489;SDS011;57752;53.574;9.736;2023-04-24T17:18:19;14.85;;;7.60;;
51489;SDS011;57752;53.574;9.736;2023-04-24T17:23:19;18.52;;;8.45;;
51489;SDS011;57752;53.574;9.736;2023-04-24T17:33:23;19.13;;;8.27;;
51489;SDS011;57752;53.574;9.736;2023-04-24T17:38:24;17.85;;;8.05;;
51489;SDS011;57752;53.574;9.736;2023-04-24T17:43:24;18.20;;;8.23;;
51489;SDS011;57752;53.574;9.736;2023-04-24T17:48:25;17.25;;;7.18;;
51489;SDS011;57752;53.574;9.736;2023-04-24T17:53:25;18.33;;;7.53;;
51489;SDS011;57752;53.574;9.736;2023-04-24T17:58:25;19.92;;;8.73;;
51489;SDS011;57752;53.574;9.736;2023-04-24T18:03:26;18.38;;;8.30;;
51489;SDS011;57752;53.574;9.736;2023-04-24T18:08:26;19.17;;;7.50;;
51489;SDS011;57752;53.574;9.736;2023-04-24T18:13:26;16.33;;;6.78;;
51489;SDS011;57752;53.574;9.736;2023-04-24T18:18:26;13.93;;;6.00;;
51489;SDS011;57752;53.574;9.736;2023-04-24T18:23:26;15.48;;;5.60;;
51489;SDS011;57752;53.574;9.736;2023-04-24T18:28:26;17.40;;;5.82;;
51489;SDS011;57752;53.574;9.736;2023-04-24T18:33:30;17.80;;;5.40;;
51489;SDS011;57752;53.574;9.736;2023-04-24T18:38:30;12.65;;;5.20;;
51489;SDS011;57752;53.574;9.736;2023-04-24T18:43:31;12.50;;;5.18;;
51489;SDS011;57752;53.574;9.736;2023-04-24T18:48:31;13.45;;;4.95;;
51489;SDS011;57752;53.574;9.736;2023-04-24T18:53:31;17.08;;;5.65;;
51489;SDS011;57752;53.574;9.736;2023-04-24T18:58:31;14.60;;;4.70;;
51489;SDS011;57752;53.574;9.736;2023-04-24T19:03:31;10.43;;;4.00;;
51489;SDS011;57752;53.574;9.736;2023-04-24T19:08:31;13.13;;;4.40;;
51489;SDS011;57752;53.574;9.736;2023-04-24T19:13:32;15.23;;;8.05;;
51489;SDS011;57752;53.574;9.736;2023-04-24T19:18:32;11.45;;;4.30;;
51489;SDS011;57752;53.574;9.736;2023-04-24T19:23:32;12.32;;;4.45;;
51489;SDS011;57752;53.574;9.736;2023-04-24T19:33:35;11.85;;;4.38;;
51489;SDS011;57752;53.574;9.736;2023-04-24T19:38:35;13.82;;;4.72;;
51489;SDS011;57752;53.574;9.736;2023-04-24T19:43:35;14.23;;;5.28;;
51489;SDS011;57752;53.574;9.736;2023-04-24T19:48:36;14.23;;;5.50;;
51489;SDS011;57752;53.574;9.736;2023-04-24T19:53:36;15.38;;;5.20;;
51489;SDS011;57752;53.574;9.736;2023-04-24T19:58:36;16.73;;;6.70;;
51489;SDS011;57752;53.574;9.736;2023-04-24T20:03:36;16.10;;;6.30;;
51489;SDS011;57752;53.574;9.736;2023-04-24T20:08:36;17.50;;;6.07;;
51489;SDS011;57752;53.574;9.736;2023-04-24T20:13:38;14.60;;;5.80;;
51489;SDS011;57752;53.574;9.736;2023-04-24T20:18:38;13.98;;;5.90;;
51489;SDS011;57752;53.574;9.736;2023-04-24T20:23:38;18.10;;;7.05;;
51489;SDS011;57752;53.574;9.736;2023-04-24T20:28:38;14.95;;;7.85;;
51489;SDS011;57752;53.574;9.736;2023-04-24T20:33:38;16.77;;;7.07;;
51489;SDS011;57752;53.574;9.736;2023-04-24T20:38:40;15.73;;;5.88;;
51489;SDS011;57752;53.574;9.736;2023-04-24T20:43:40;18.25;;;6.00;;
51489;SDS011;57752;53.574;9.736;2023-04-24T20:48:40;14.15;;;6.05;;
51489;SDS011;57752;53.574;9.736;2023-04-24T20:53:40;17.75;;;6.38;;
51489;SDS011;57752;53.574;9.736;2023-04-24T20:58:43;16.08;;;6.30;;
51489;SDS011;57752;53.574;9.736;2023-04-24T21:03:43;19.05;;;6.00;;
51489;SDS011;57752;53.574;9.736;2023-04-24T21:08:43;15.30;;;5.88;;
51489;SDS011;57752;53.574;9.736;2023-04-24T21:13:44;15.90;;;5.68;;
51489;SDS011;57752;53.574;9.736;2023-04-24T21:18:44;15.63;;;5.65;;
51489;SDS011;57752;53.574;9.736;2023-04-24T21:23:44;15.15;;;5.32;;
51489;SDS011;57752;53.574;9.736;2023-04-24T21:28:44;16.35;;;6.10;;
51489;SDS011;57752;53.574;9.736;2023-04-24T21:33:45;17.80;;;6.73;;
51489;SDS011;57752;53.574;9.736;2023-04-24T21:38:45;14.48;;;5.85;;
51489;SDS011;57752;53.574;9.736;2023-04-24T21:43:45;17.35;;;6.30;;
51489;SDS011;57752;53.574;9.736;2023-04-24T21:48:45;20.33;;;6.38;;
51489;SDS011;57752;53.574;9.736;2023-04-24T21:53:45;17.38;;;6.70;;
51489;SDS011;57752;53.574;9.736;2023-04-24T21:58:46;19.38;;;6.53;;
51489;SDS011;57752;53.574;9.736;2023-04-24T22:03:46;16.15;;;6.50;;
51489;SDS011;57752;53.574;9.736;2023-04-24T22:08:46;19.98;;;7.40;;
51489;SDS011;57752;53.574;9.736;2023-04-24T22:13:46;20.35;;;7.50;;
51489;SDS011;57752;53.574;9.736;2023-04-24T22:18:47;18.17;;;6.65;;
51489;SDS011;57752;53.574;9.736;2023-04-24T22:23:47;18.60;;;6.97;;
51489;SDS011;57752;53.574;9.736;2023-04-24T22:28:48;18.73;;;7.50;;
51489;SDS011;57752;53.574;9.736;2023-04-24T22:33:48;18.65;;;6.78;;
51489;SDS011;57752;53.574;9.736;2023-04-24T22:38:48;20.45;;;8.10;;
51489;SDS011;57752;53.574;9.736;2023-04-24T22:43:48;18.60;;;7.35;;
51489;SDS011;57752;53.574;9.736;2023-04-24T22:48:49;16.45;;;7.25;;
51489;SDS011;57752;53.574;9.736;2023-04-24T22:53:49;18.38;;;7.88;;
51489;SDS011;57752;53.574;9.736;2023-04-24T22:58:49;17.90;;;7.18;;
51489;SDS011;57752;53.574;9.736;2023-04-24T23:03:49;20.80;;;7.63;;
51489;SDS011;57752;53.574;9.736;2023-04-24T23:08:50;21.02;;;7.60;;
51489;SDS011;57752;53.574;9.736;2023-04-24T23:13:50;20.90;;;7.50;;
51489;SDS011;57752;53.574;9.736;2023-04-24T23:18:50;22.40;;;7.07;;
51489;SDS011;57752;53.574;9.736;2023-04-24T23:23:50;17.17;;;7.00;;
51489;SDS011;57752;53.574;9.736;2023-04-24T23:28:51;18.02;;;6.25;;
51489;SDS011;57752;53.574;9.736;2023-04-24T23:33:51;21.33;;;7.80;;
51489;SDS011;57752;53.574;9.736;2023-04-24T23:38:52;16.00;;;6.65;;
51489;SDS011;57752;53.574;9.736;2023-04-24T23:43:52;19.52;;;7.70;;
51489;SDS011;57752;53.574;9.736;2023-04-24T23:48:52;20.20;;;7.40;;
51489;SDS011;57752;53.574;9.736;2023-04-24T23:53:52;22.95;;;8.60;;
51489;SDS011;57752;53.574;9.736;2023-04-24T23:58:52;23.80;;;11.45;;
